sensor_id;sensor_type;location;lat;lon;timestamp;pressure;altitude;pressure_sealevel;temperature
76713;BMP280;65640;43.154;25.658;2024-03-02T00:00:38;100303.69;;;7.92
76713;BMP280;65640;43.154;25.658;2024-03-02T00:03:03;100305.88;;;8.05
76713;BMP280;65640;43.154;25.658;2024-03-02T00:05:29;100299.88;;;8.10
76713;BMP280;65640;43.154;25.658;2024-03-02T00:07:56;100293.41;;;8.18
76713;BMP280;65640;43.154;25.658;2024-03-02T00:10:25;100298.84;;;8.11
76713;BMP280;65640;43.154;25.658;2024-03-02T00:12:55;100294.16;;;8.08
76713;BMP280;65640;43.154;25.658;2024-03-02T00:18:14;100280.25;;;7.87
76713;BMP280;65640;43.154;25.658;2024-03-02T00:20:41;100291.97;;;7.90
76713;BMP280;65640;43.154;25.658;2024-03-02T00:23:09;100287.81;;;7.94
76713;BMP280;65640;43.154;25.658;2024-03-02T00:25:47;100290.00;;;8.12
76713;BMP280;65640;43.154;25.658;2024-03-02T00:28:16;100287.09;;;8.14
76713;BMP280;65640;43.154;25.658;2024-03-02T00:33:27;100287.09;;;8.14
76713;BMP280;65640;43.154;25.658;2024-03-02T00:35:53;100285.25;;;7.99
76713;BMP280;65640;43.154;25.658;2024-03-02T00:38:19;100279.16;;;7.83
76713;BMP280;65640;43.154;25.658;2024-03-02T00:40:45;100283.88;;;7.91
76713;BMP280;65640;43.154;25.658;2024-03-02T00:46:18;100276.84;;;7.92
76713;BMP280;65640;43.154;25.658;2024-03-02T00:48:53;100274.25;;;7.87
76713;BMP280;65640;43.154;25.658;2024-03-02T00:51:20;100275.75;;;7.83
76713;BMP280;65640;43.154;25.658;2024-03-02T00:53:46;100272.66;;;7.86
76713;BMP280;65640;43.154;25.658;2024-03-02T00:56:12;100271.63;;;7.87
76713;BMP280;65640;43.154;25.658;2024-03-02T00:58:38;100265.38;;;7.93
76713;BMP280;65640;43.154;25.658;2024-03-02T01:01:03;100268.97;;;7.82
76713;BMP280;65640;43.154;25.658;2024-03-02T01:03:30;100261.47;;;7.85
76713;BMP280;65640;43.154;25.658;2024-03-02T01:05:55;100258.59;;;7.92
76713;BMP280;65640;43.154;25.658;2024-03-02T01:08:21;100254.22;;;8.02
76713;BMP280;65640;43.154;25.658;2024-03-02T01:10:46;100262.03;;;7.97
76713;BMP280;65640;43.154;25.658;2024-03-02T01:13:12;100262.25;;;7.86
76713;BMP280;65640;43.154;25.658;2024-03-02T01:15:37;100254.88;;;7.78
76713;BMP280;65640;43.154;25.658;2024-03-02T01:18:03;100258.78;;;7.75
76713;BMP280;65640;43.154;25.658;2024-03-02T01:20:28;100249.72;;;7.83
76713;BMP280;65640;43.154;25.658;2024-03-02T01:22:54;100253.81;;;7.74
76713;BMP280;65640;43.154;25.658;2024-03-02T01:25:20;100244.38;;;7.67
76713;BMP280;65640;43.154;25.658;2024-03-02T01:27:45;100241.78;;;7.67
76713;BMP280;65640;43.154;25.658;2024-03-02T01:30:11;100238.72;;;7.76
76713;BMP280;65640;43.154;25.658;2024-03-02T01:32:38;100230.97;;;7.91
76713;BMP280;65640;43.154;25.658;2024-03-02T01:35:04;100229.94;;;7.92
76713;BMP280;65640;43.154;25.658;2024-03-02T01:37:29;100224.69;;;7.82
76713;BMP280;65640;43.154;25.658;2024-03-02T01:39:55;100232.44;;;7.72
76713;BMP280;65640;43.154;25.658;2024-03-02T01:42:20;100229.88;;;7.77
76713;BMP280;65640;43.154;25.658;2024-03-02T01:44:46;100217.69;;;7.87
76713;BMP280;65640;43.154;25.658;2024-03-02T01:47:11;100216.91;;;7.87
76713;BMP280;65640;43.154;25.658;2024-03-02T01:49:37;100227.28;;;7.77
76713;BMP280;65640;43.154;25.658;2024-03-02T01:52:04;100220.69;;;7.69
76713;BMP280;65640;43.154;25.658;2024-03-02T01:54:29;100210.56;;;7.78
76713;BMP280;65640;43.154;25.658;2024-03-02T01:56:54;100216.13;;;7.86
76713;BMP280;65640;43.154;25.658;2024-03-02T01:59:20;100226.81;;;7.90
76713;BMP280;65640;43.154;25.658;2024-03-02T02:01:45;100229.94;;;7.87
76713;BMP280;65640;43.154;25.658;2024-03-02T02:04:10;100229.88;;;7.77
76713;BMP280;65640;43.154;25.658;2024-03-02T02:06:36;100230.94;;;7.81
76713;BMP280;65640;43.154;25.658;2024-03-02T02:09:01;100225.72;;;7.76
76713;BMP280;65640;43.154;25.658;2024-03-02T02:11:27;100222.50;;;7.68
76713;BMP280;65640;43.154;25.658;2024-03-02T02:13:52;100219.41;;;7.66
76713;BMP280;65640;43.154;25.658;2024-03-02T02:16:20;100218.88;;;7.69
76713;BMP280;65640;43.154;25.658;2024-03-02T02:18:46;100221.53;;;7.80
76713;BMP280;65640;43.154;25.658;2024-03-02T02:21:11;100226.16;;;7.67
76713;BMP280;65640;43.154;25.658;2024-03-02T02:23:36;100229.56;;;7.63
76713;BMP280;65640;43.154;25.658;2024-03-02T02:26:02;100226.41;;;7.61
76713;BMP280;65640;43.154;25.658;2024-03-02T02:28:29;100229.25;;;7.59
76713;BMP280;65640;43.154;25.658;2024-03-02T02:30:54;100226.16;;;7.62
76713;BMP280;65640;43.154;25.658;2024-03-02T02:33:21;100228.53;;;7.64
76713;BMP280;65640;43.154;25.658;2024-03-02T02:35:46;100224.34;;;7.63
76713;BMP280;65640;43.154;25.658;2024-03-02T02:38:12;100228.72;;;7.57
76713;BMP280;65640;43.154;25.658;2024-03-02T02:40:37;100231.31;;;7.57
76713;BMP280;65640;43.154;25.658;2024-03-02T02:43:03;100223.56;;;7.62
76713;BMP280;65640;43.154;25.658;2024-03-02T02:45:28;100219.69;;;7.65
76713;BMP280;65640;43.154;25.658;2024-03-02T02:47:54;100227.28;;;7.77
76713;BMP280;65640;43.154;25.658;2024-03-02T02:50:19;100222.50;;;7.68
76713;BMP280;65640;43.154;25.658;2024-03-02T02:52:45;100223.53;;;7.67
76713;BMP280;65640;43.154;25.658;2024-03-02T02:55:11;100228.25;;;7.71
76713;BMP280;65640;43.154;25.658;2024-03-02T02:57:39;100222.31;;;7.75
76713;BMP280;65640;43.154;25.658;2024-03-02T03:00:09;100223.88;;;7.76
76713;BMP280;65640;43.154;25.658;2024-03-02T03:02:38;100225.47;;;7.77
76713;BMP280;65640;43.154;25.658;2024-03-02T03:05:11;100214.25;;;7.77
76713;BMP280;65640;43.154;25.658;2024-03-02T03:07:37;100216.50;;;7.68
76713;BMP280;65640;43.154;25.658;2024-03-02T03:10:04;100222.50;;;7.68
76713;BMP280;65640;43.154;25.658;2024-03-02T03:12:30;100222.03;;;7.72
76713;BMP280;65640;43.154;25.658;2024-03-02T03:14:56;100214.56;;;7.85
76713;BMP280;65640;43.154;25.658;2024-03-02T03:17:22;100218.19;;;7.84
76713;BMP280;65640;43.154;25.658;2024-03-02T03:19:48;100223.34;;;7.79
76713;BMP280;65640;43.154;25.658;2024-03-02T03:22:14;100217.66;;;7.82
76713;BMP280;65640;43.154;25.658;2024-03-02T03:24:39;100216.88;;;7.82
76713;BMP280;65640;43.154;25.658;2024-03-02T03:27:05;100211.41;;;7.83
76713;BMP280;65640;43.154;25.658;2024-03-02T03:29:30;100221.53;;;7.80
76713;BMP280;65640;43.154;25.658;2024-03-02T03:31:55;100226.00;;;7.84
76713;BMP280;65640;43.154;25.658;2024-03-02T03:34:21;100227.84;;;7.89
76713;BMP280;65640;43.154;25.658;2024-03-02T03:36:46;100227.38;;;8.02
76713;BMP280;65640;43.154;25.658;2024-03-02T03:39:11;100235.97;;;7.97
76713;BMP280;65640;43.154;25.658;2024-03-02T03:41:37;100237.00;;;7.96
76713;BMP280;65640;43.154;25.658;2024-03-02T03:44:02;100233.06;;;7.89
76713;BMP280;65640;43.154;25.658;2024-03-02T03:46:29;100232.72;;;7.75
76713;BMP280;65640;43.154;25.658;2024-03-02T03:48:54;100228.56;;;7.74
76713;BMP280;65640;43.154;25.658;2024-03-02T03:51:21;100230.16;;;7.80
76713;BMP280;65640;43.154;25.658;2024-03-02T03:53:47;100226.25;;;7.83
76713;BMP280;65640;43.154;25.658;2024-03-02T03:56:13;100215.31;;;7.91
76713;BMP280;65640;43.154;25.658;2024-03-02T03:58:38;100216.69;;;7.98
76713;BMP280;65640;43.154;25.658;2024-03-02T04:01:03;100211.69;;;7.92
76713;BMP280;65640;43.154;25.658;2024-03-02T04:03:29;100217.97;;;7.96
76713;BMP280;65640;43.154;25.658;2024-03-02T04:05:55;100217.00;;;8.07
76713;BMP280;65640;43.154;25.658;2024-03-02T04:08:20;100213.25;;;7.93
76713;BMP280;65640;43.154;25.658;2024-03-02T04:10:46;100217.41;;;7.84
76713;BMP280;65640;43.154;25.658;2024-03-02T04:13:11;100211.19;;;7.95
76713;BMP280;65640;43.154;25.658;2024-03-02T04:15:37;100217.94;;;7.91
76713;BMP280;65640;43.154;25.658;2024-03-02T04:18:02;100212.22;;;7.89
76713;BMP280;65640;43.154;25.658;2024-03-02T04:20:28;100216.94;;;7.97
76713;BMP280;65640;43.154;25.658;2024-03-02T04:22:53;100227.63;;;7.95
76713;BMP280;65640;43.154;25.658;2024-03-02T04:25:19;100220.00;;;7.84
76713;BMP280;65640;43.154;25.658;2024-03-02T04:27:45;100221.84;;;7.88
76713;BMP280;65640;43.154;25.658;2024-03-02T04:30:10;100231.72;;;7.81
76713;BMP280;65640;43.154;25.658;2024-03-02T04:32:36;100230.44;;;7.84
76713;BMP280;65640;43.154;25.658;2024-03-02T04:35:01;100229.41;;;7.85
76713;BMP280;65640;43.154;25.658;2024-03-02T04:37:27;100231.44;;;7.78
76713;BMP280;65640;43.154;25.658;2024-03-02T04:39:52;100235.59;;;7.74
76713;BMP280;65640;43.154;25.658;2024-03-02T04:42:18;100236.56;;;7.67
76713;BMP280;65640;43.154;25.658;2024-03-02T04:44:43;100243.91;;;7.65
76713;BMP280;65640;43.154;25.658;2024-03-02T04:47:09;100244.91;;;7.69
76713;BMP280;65640;43.154;25.658;2024-03-02T04:49:34;100231.16;;;7.74
76713;BMP280;65640;43.154;25.658;2024-03-02T04:51:59;100231.44;;;7.78
76713;BMP280;65640;43.154;25.658;2024-03-02T04:54:25;100239.97;;;7.63
76713;BMP280;65640;43.154;25.658;2024-03-02T04:56:50;100232.94;;;7.68
76713;BMP280;65640;43.154;25.658;2024-03-02T04:59:17;100235.50;;;7.58
76713;BMP280;65640;43.154;25.658;2024-03-02T05:01:43;100236.50;;;7.52
76713;BMP280;65640;43.154;25.658;2024-03-02T05:04:08;100235.56;;;7.63
76713;BMP280;65640;43.154;25.658;2024-03-02T05:06:37;100243.34;;;7.68
76713;BMP280;65640;43.154;25.658;2024-03-02T05:09:03;100241.78;;;7.62
76713;BMP280;65640;43.154;25.658;2024-03-02T05:11:28;100237.41;;;7.78
76713;BMP280;65640;43.154;25.658;2024-03-02T05:14:05;100243.16;;;7.75
76713;BMP280;65640;43.154;25.658;2024-03-02T05:16:34;100233.53;;;7.81
76713;BMP280;65640;43.154;25.658;2024-03-02T05:19:00;100246.84;;;7.84
76713;BMP280;65640;43.154;25.658;2024-03-02T05:21:25;100246.63;;;7.86
76713;BMP280;65640;43.154;25.658;2024-03-02T05:23:50;100261.66;;;7.79
76713;BMP280;65640;43.154;25.658;2024-03-02T05:26:16;100273.09;;;7.78
76713;BMP280;65640;43.154;25.658;2024-03-02T05:28:42;100267.16;;;7.82
76713;BMP280;65640;43.154;25.658;2024-03-02T05:31:10;100257.47;;;7.78
76713;BMP280;65640;43.154;25.658;2024-03-02T05:33:37;100257.47;;;7.73
76713;BMP280;65640;43.154;25.658;2024-03-02T05:36:03;100262.97;;;7.76
76713;BMP280;65640;43.154;25.658;2024-03-02T05:38:29;100253.34;;;7.77
76713;BMP280;65640;43.154;25.658;2024-03-02T05:40:55;100275.09;;;7.60
76713;BMP280;65640;43.154;25.658;2024-03-02T05:43:20;100265.28;;;7.73
76713;BMP280;65640;43.154;25.658;2024-03-02T05:45:45;100273.09;;;7.78
76713;BMP280;65640;43.154;25.658;2024-03-02T05:48:11;100273.69;;;7.85
76713;BMP280;65640;43.154;25.658;2024-03-02T05:50:36;100286.13;;;7.78
76713;BMP280;65640;43.154;25.658;2024-03-02T05:53:02;100284.13;;;7.85
76713;BMP280;65640;43.154;25.658;2024-03-02T05:55:27;100287.75;;;7.84
76713;BMP280;65640;43.154;25.658;2024-03-02T05:57:53;100275.00;;;7.92
76713;BMP280;65640;43.154;25.658;2024-03-02T06:00:37;100271.59;;;7.82
76713;BMP280;65640;43.154;25.658;2024-03-02T06:03:02;100282.56;;;7.84
76713;BMP280;65640;43.154;25.658;2024-03-02T06:05:28;100274.75;;;7.89
76713;BMP280;65640;43.154;25.658;2024-03-02T06:07:53;100279.38;;;7.77
76713;BMP280;65640;43.154;25.658;2024-03-02T06:10:19;100262.78;;;7.93
76713;BMP280;65640;43.154;25.658;2024-03-02T06:12:45;100293.00;;;7.94
76713;BMP280;65640;43.154;25.658;2024-03-02T06:15:11;100287.56;;;8.00
76713;BMP280;65640;43.154;25.658;2024-03-02T06:17:36;100271.72;;;8.07
76713;BMP280;65640;43.154;25.658;2024-03-02T06:20:02;100271.66;;;7.97
76713;BMP280;65640;43.154;25.658;2024-03-02T06:22:27;100283.13;;;7.96
76713;BMP280;65640;43.154;25.658;2024-03-02T06:24:53;100285.75;;;8.01
76713;BMP280;65640;43.154;25.658;2024-03-02T06:27:18;100298.53;;;7.97
76713;BMP280;65640;43.154;25.658;2024-03-02T06:29:44;100288.34;;;8.01
76713;BMP280;65640;43.154;25.658;2024-03-02T06:32:09;100300.41;;;8.12
76713;BMP280;65640;43.154;25.658;2024-03-02T06:34:34;100297.38;;;8.30
76713;BMP280;65640;43.154;25.658;2024-03-02T06:37:00;100282.78;;;8.39
76713;BMP280;65640;43.154;25.658;2024-03-02T06:39:25;100286.44;;;8.43
76713;BMP280;65640;43.154;25.658;2024-03-02T06:41:51;100269.75;;;8.39
76713;BMP280;65640;43.154;25.658;2024-03-02T06:44:16;100261.13;;;8.39
76713;BMP280;65640;43.154;25.658;2024-03-02T06:46:42;100253.81;;;8.36
76713;BMP280;65640;43.154;25.658;2024-03-02T06:49:07;100257.72;;;8.28
76713;BMP280;65640;43.154;25.658;2024-03-02T06:51:33;100273.91;;;8.35
76713;BMP280;65640;43.154;25.658;2024-03-02T06:53:59;100284.63;;;8.44
76713;BMP280;65640;43.154;25.658;2024-03-02T06:56:24;100326.66;;;8.53
76713;BMP280;65640;43.154;25.658;2024-03-02T06:58:49;100310.78;;;8.69
76713;BMP280;65640;43.154;25.658;2024-03-02T07:01:15;100329.06;;;8.74
76713;BMP280;65640;43.154;25.658;2024-03-02T07:03:40;100300.41;;;8.79
76713;BMP280;65640;43.154;25.658;2024-03-02T07:06:06;100288.09;;;8.75
76713;BMP280;65640;43.154;25.658;2024-03-02T07:08:31;100279.53;;;8.79
76713;BMP280;65640;43.154;25.658;2024-03-02T07:10:56;100243.47;;;8.71
76713;BMP280;65640;43.154;25.658;2024-03-02T07:13:22;100259.13;;;8.66
76713;BMP280;65640;43.154;25.658;2024-03-02T07:15:48;100289.13;;;8.74
76713;BMP280;65640;43.154;25.658;2024-03-02T07:18:25;100293.34;;;8.95
76713;BMP280;65640;43.154;25.658;2024-03-02T07:20:50;100294.13;;;8.96
76713;BMP280;65640;43.154;25.658;2024-03-02T07:23:16;100288.94;;;9.16
76713;BMP280;65640;43.154;25.658;2024-03-02T07:25:41;100289.72;;;9.16
76713;BMP280;65640;43.154;25.658;2024-03-02T07:28:06;100288.91;;;9.11
76713;BMP280;65640;43.154;25.658;2024-03-02T07:30:32;100281.84;;;9.32
76713;BMP280;65640;43.154;25.658;2024-03-02T07:32:58;100273.50;;;9.45
76713;BMP280;65640;43.154;25.658;2024-03-02T07:35:24;100283.94;;;9.45
76713;BMP280;65640;43.154;25.658;2024-03-02T07:37:53;100278.16;;;9.48
76713;BMP280;65640;43.154;25.658;2024-03-02T07:40:19;100285.78;;;9.44
76713;BMP280;65640;43.154;25.658;2024-03-02T07:42:45;100290.44;;;9.57
76713;BMP280;65640;43.154;25.658;2024-03-02T07:45:10;100293.25;;;9.76
76713;BMP280;65640;43.154;25.658;2024-03-02T07:47:36;100296.91;;;9.75
76713;BMP280;65640;43.154;25.658;2024-03-02T07:50:02;100296.66;;;9.77
76713;BMP280;65640;43.154;25.658;2024-03-02T07:52:28;100290.66;;;9.71
76713;BMP280;65640;43.154;25.658;2024-03-02T07:54:53;100296.44;;;9.73
76713;BMP280;65640;43.154;25.658;2024-03-02T07:57:19;100288.06;;;9.66
76713;BMP280;65640;43.154;25.658;2024-03-02T07:59:45;100272.41;;;9.66
76713;BMP280;65640;43.154;25.658;2024-03-02T08:02:10;100288.63;;;9.63
76713;BMP280;65640;43.154;25.658;2024-03-02T08:04:37;100312.59;;;9.85
76713;BMP280;65640;43.154;25.658;2024-03-02T08:07:03;100308.63;;;10.03
76713;BMP280;65640;43.154;25.658;2024-03-02T08:09:29;100300.50;;;10.04
76713;BMP280;65640;43.154;25.658;2024-03-02T08:11:54;100298.97;;;9.93
76713;BMP280;65640;43.154;25.658;2024-03-02T08:14:21;100296.34;;;10.09
76713;BMP280;65640;43.154;25.658;2024-03-02T08:16:46;100301.00;;;10.12
76713;BMP280;65640;43.154;25.658;2024-03-02T08:19:12;100304.09;;;10.19
76713;BMP280;65640;43.154;25.658;2024-03-02T08:21:37;100315.59;;;10.23
76713;BMP280;65640;43.154;25.658;2024-03-02T08:24:03;100295.19;;;10.30
76713;BMP280;65640;43.154;25.658;2024-03-02T08:26:28;100298.59;;;10.25
76713;BMP280;65640;43.154;25.658;2024-03-02T08:28:56;100306.72;;;10.19
76713;BMP280;65640;43.154;25.658;2024-03-02T08:31:22;100301.72;;;10.27
76713;BMP280;65640;43.154;25.658;2024-03-02T08:33:47;100294.69;;;10.23
76713;BMP280;65640;43.154;25.658;2024-03-02T08:36:12;100289.16;;;10.29
76713;BMP280;65640;43.154;25.658;2024-03-02T08:38:38;100289.31;;;10.43
76713;BMP280;65640;43.154;25.658;2024-03-02T08:41:04;100308.34;;;10.59
76713;BMP280;65640;43.154;25.658;2024-03-02T08:43:29;100303.31;;;10.67
76713;BMP280;65640;43.154;25.658;2024-03-02T08:45:55;100298.38;;;10.61
76713;BMP280;65640;43.154;25.658;2024-03-02T08:48:20;100310.59;;;10.75
76713;BMP280;65640;43.154;25.658;2024-03-02T08:50:46;100304.78;;;10.83
76713;BMP280;65640;43.154;25.658;2024-03-02T08:53:11;100290.75;;;10.69
76713;BMP280;65640;43.154;25.658;2024-03-02T08:55:37;100290.63;;;10.45
76713;BMP280;65640;43.154;25.658;2024-03-02T08:58:02;100293.47;;;10.54
76713;BMP280;65640;43.154;25.658;2024-03-02T09:00:28;100304.72;;;10.55
76713;BMP280;65640;43.154;25.658;2024-03-02T09:02:54;100296.03;;;10.64
76713;BMP280;65640;43.154;25.658;2024-03-02T09:05:19;100286.59;;;10.63
76713;BMP280;65640;43.154;25.658;2024-03-02T09:07:45;100294.22;;;10.60
76713;BMP280;65640;43.154;25.658;2024-03-02T09:10:10;100322.66;;;10.76
76713;BMP280;65640;43.154;25.658;2024-03-02T09:12:36;100314.91;;;10.95
76713;BMP280;65640;43.154;25.658;2024-03-02T09:15:02;100308.38;;;10.98
76713;BMP280;65640;43.154;25.658;2024-03-02T09:17:28;100328.41;;;11.07
76713;BMP280;65640;43.154;25.658;2024-03-02T09:19:55;100318.16;;;11.16
76713;BMP280;65640;43.154;25.658;2024-03-02T09:22:20;100298.81;;;11.07
76713;BMP280;65640;43.154;25.658;2024-03-02T09:24:46;100334.44;;;11.13
76713;BMP280;65640;43.154;25.658;2024-03-02T09:27:11;100333.13;;;11.10
76713;BMP280;65640;43.154;25.658;2024-03-02T09:29:37;100315.31;;;11.07
76713;BMP280;65640;43.154;25.658;2024-03-02T09:32:03;100326.78;;;11.16
76713;BMP280;65640;43.154;25.658;2024-03-02T09:34:29;100312.44;;;11.38
76713;BMP280;65640;43.154;25.658;2024-03-02T09:36:54;100300.66;;;11.40
76713;BMP280;65640;43.154;25.658;2024-03-02T09:39:20;100295.94;;;11.37
76713;BMP280;65640;43.154;25.658;2024-03-02T09:41:45;100297.50;;;11.38
76713;BMP280;65640;43.154;25.658;2024-03-02T09:44:12;100307.47;;;11.41
76713;BMP280;65640;43.154;25.658;2024-03-02T09:46:37;100304.41;;;11.29
76713;BMP280;65640;43.154;25.658;2024-03-02T09:49:03;100301.75;;;11.34
76713;BMP280;65640;43.154;25.658;2024-03-02T09:51:28;100313.06;;;11.58
76713;BMP280;65640;43.154;25.658;2024-03-02T09:53:55;100311.94;;;11.64
76713;BMP280;65640;43.154;25.658;2024-03-02T09:56:21;100302.44;;;11.68
76713;BMP280;65640;43.154;25.658;2024-03-02T09:58:46;100322.38;;;11.69
76713;BMP280;65640;43.154;25.658;2024-03-02T10:01:12;100307.25;;;11.85
76713;BMP280;65640;43.154;25.658;2024-03-02T10:03:37;100280.75;;;11.87
76713;BMP280;65640;43.154;25.658;2024-03-02T10:06:22;100255.84;;;11.60
76713;BMP280;65640;43.154;25.658;2024-03-02T10:08:48;100255.81;;;11.65
76713;BMP280;65640;43.154;25.658;2024-03-02T10:11:32;100252.88;;;11.72
76713;BMP280;65640;43.154;25.658;2024-03-02T10:14:09;100270.84;;;11.79
76713;BMP280;65640;43.154;25.658;2024-03-02T10:16:41;100275.84;;;11.80
76713;BMP280;65640;43.154;25.658;2024-03-02T10:19:23;100269.28;;;11.59
76713;BMP280;65640;43.154;25.658;2024-03-02T10:21:54;100261.09;;;11.60
76713;BMP280;65640;43.154;25.658;2024-03-02T10:24:22;100248.22;;;11.64
76713;BMP280;65640;43.154;25.658;2024-03-02T10:26:48;100273.06;;;11.71
76713;BMP280;65640;43.154;25.658;2024-03-02T10:29:14;100299.91;;;11.82
76713;BMP280;65640;43.154;25.658;2024-03-02T10:31:41;100320.03;;;11.92
76713;BMP280;65640;43.154;25.658;2024-03-02T10:34:08;100319.53;;;11.90
76713;BMP280;65640;43.154;25.658;2024-03-02T10:36:34;100323.81;;;11.81
76713;BMP280;65640;43.154;25.658;2024-03-02T10:39:04;100328.47;;;11.89
76713;BMP280;65640;43.154;25.658;2024-03-02T10:41:38;100315.63;;;11.87
76713;BMP280;65640;43.154;25.658;2024-03-02T10:44:04;100299.97;;;11.77
76713;BMP280;65640;43.154;25.658;2024-03-02T10:46:33;100292.06;;;11.82
76713;BMP280;65640;43.154;25.658;2024-03-02T10:49:03;100292.75;;;11.93
76713;BMP280;65640;43.154;25.658;2024-03-02T10:51:30;100288.91;;;12.04
76713;BMP280;65640;43.154;25.658;2024-03-02T10:54:02;100273.06;;;12.14
76713;BMP280;65640;43.154;25.658;2024-03-02T10:59:01;100283.81;;;12.50
76713;BMP280;65640;43.154;25.658;2024-03-02T11:01:29;100269.28;;;12.57
76713;BMP280;65640;43.154;25.658;2024-03-02T11:03:56;100243.66;;;12.49
76713;BMP280;65640;43.154;25.658;2024-03-02T11:06:22;100228.41;;;12.33
76713;BMP280;65640;43.154;25.658;2024-03-02T11:08:48;100249.53;;;12.41
76713;BMP280;65640;43.154;25.658;2024-03-02T11:11:15;100254.16;;;12.49
76713;BMP280;65640;43.154;25.658;2024-03-02T11:13:49;100244.09;;;12.70
76713;BMP280;65640;43.154;25.658;2024-03-02T11:16:36;100253.31;;;12.68
76713;BMP280;65640;43.154;25.658;2024-03-02T11:19:07;100265.00;;;12.62
76713;BMP280;65640;43.154;25.658;2024-03-02T11:21:35;100279.81;;;12.71
76713;BMP280;65640;43.154;25.658;2024-03-02T11:24:01;100280.28;;;12.92
76713;BMP280;65640;43.154;25.658;2024-03-02T11:26:47;100276.97;;;13.00
76713;BMP280;65640;43.154;25.658;2024-03-02T11:32:13;100255.22;;;12.81
76713;BMP280;65640;43.154;25.658;2024-03-02T11:34:42;100254.84;;;12.87
76713;BMP280;65640;43.154;25.658;2024-03-02T11:37:10;100249.13;;;12.85
76713;BMP280;65640;43.154;25.658;2024-03-02T11:39:36;100250.78;;;12.95
76713;BMP280;65640;43.154;25.658;2024-03-02T11:42:05;100258.38;;;12.96
76713;BMP280;65640;43.154;25.658;2024-03-02T11:44:30;100249.81;;;12.91
76713;BMP280;65640;43.154;25.658;2024-03-02T11:46:58;100235.59;;;12.92
76713;BMP280;65640;43.154;25.658;2024-03-02T11:49:37;100240.13;;;12.86
76713;BMP280;65640;43.154;25.658;2024-03-02T11:52:06;100259.03;;;12.88
76713;BMP280;65640;43.154;25.658;2024-03-02T11:54:33;100260.88;;;12.88
76713;BMP280;65640;43.154;25.658;2024-03-02T11:57:02;100262.75;;;13.01
76713;BMP280;65640;43.154;25.658;2024-03-02T11:59:29;100262.06;;;13.09
76713;BMP280;65640;43.154;25.658;2024-03-02T12:01:55;100256.72;;;13.14
76713;BMP280;65640;43.154;25.658;2024-03-02T12:04:22;100258.00;;;13.03
76713;BMP280;65640;43.154;25.658;2024-03-02T12:06:54;100254.97;;;13.10
76713;BMP280;65640;43.154;25.658;2024-03-02T12:09:21;100257.53;;;13.28
76713;BMP280;65640;43.154;25.658;2024-03-02T12:11:46;100263.69;;;13.37
76713;BMP280;65640;43.154;25.658;2024-03-02T12:14:12;100253.16;;;13.37
76713;BMP280;65640;43.154;25.658;2024-03-02T12:16:44;100250.72;;;13.27
76713;BMP280;65640;43.154;25.658;2024-03-02T12:19:09;100249.06;;;13.31
76713;BMP280;65640;43.154;25.658;2024-03-02T12:21:34;100249.38;;;13.43
76713;BMP280;65640;43.154;25.658;2024-03-02T12:24:01;100246.75;;;13.30
76713;BMP280;65640;43.154;25.658;2024-03-02T12:26:27;100238.56;;;13.31
76713;BMP280;65640;43.154;25.658;2024-03-02T12:28:53;100232.69;;;13.21
76713;BMP280;65640;43.154;25.658;2024-03-02T12:31:19;100232.03;;;13.29
76713;BMP280;65640;43.154;25.658;2024-03-02T12:33:44;100236.09;;;13.21
76713;BMP280;65640;43.154;25.658;2024-03-02T12:36:13;100244.00;;;13.21
76713;BMP280;65640;43.154;25.658;2024-03-02T12:38:43;100248.09;;;13.27
76713;BMP280;65640;43.154;25.658;2024-03-02T12:41:09;100251.09;;;13.34
76713;BMP280;65640;43.154;25.658;2024-03-02T12:43:34;100259.09;;;13.43
76713;BMP280;65640;43.154;25.658;2024-03-02T12:45:59;100255.69;;;13.29
76713;BMP280;65640;43.154;25.658;2024-03-02T12:48:25;100250.91;;;13.31
76713;BMP280;65640;43.154;25.658;2024-03-02T12:50:51;100249.66;;;13.42
76713;BMP280;65640;43.154;25.658;2024-03-02T12:53:16;100257.66;;;13.51
76713;BMP280;65640;43.154;25.658;2024-03-02T12:55:42;100260.72;;;13.39
76713;BMP280;65640;43.154;25.658;2024-03-02T12:58:16;100252.78;;;13.44
76713;BMP280;65640;43.154;25.658;2024-03-02T13:00:42;100250.22;;;13.53
76713;BMP280;65640;43.154;25.658;2024-03-02T13:03:07;100255.41;;;13.44
76713;BMP280;65640;43.154;25.658;2024-03-02T13:05:32;100255.84;;;13.32
76713;BMP280;65640;43.154;25.658;2024-03-02T13:07:58;100256.47;;;13.29
76713;BMP280;65640;43.154;25.658;2024-03-02T13:10:24;100249.63;;;13.15
76713;BMP280;65640;43.154;25.658;2024-03-02T13:12:50;100257.31;;;13.11
76713;BMP280;65640;43.154;25.658;2024-03-02T13:15:15;100258.56;;;13.14
76713;BMP280;65640;43.154;25.658;2024-03-02T13:17:41;100261.63;;;13.21
76713;BMP280;65640;43.154;25.658;2024-03-02T13:20:30;100255.47;;;13.12
76713;BMP280;65640;43.154;25.658;2024-03-02T13:22:57;100258.78;;;13.17
76713;BMP280;65640;43.154;25.658;2024-03-02T13:25:22;100261.69;;;13.02
76713;BMP280;65640;43.154;25.658;2024-03-02T13:27:48;100261.00;;;12.96
76713;BMP280;65640;43.154;25.658;2024-03-02T13:30:13;100259.03;;;12.88
76713;BMP280;65640;43.154;25.658;2024-03-02T13:32:38;100259.53;;;12.90
76713;BMP280;65640;43.154;25.658;2024-03-02T13:35:04;100254.00;;;12.92
76713;BMP280;65640;43.154;25.658;2024-03-02T13:37:30;100253.69;;;12.93
76713;BMP280;65640;43.154;25.658;2024-03-02T13:39:55;100258.78;;;13.04
76713;BMP280;65640;43.154;25.658;2024-03-02T13:42:21;100257.13;;;13.08
76713;BMP280;65640;43.154;25.658;2024-03-02T13:44:46;100260.50;;;12.94
76713;BMP280;65640;43.154;25.658;2024-03-02T13:47:13;100253.19;;;12.78
76713;BMP280;65640;43.154;25.658;2024-03-02T13:49:38;100265.34;;;12.87
76713;BMP280;65640;43.154;25.658;2024-03-02T13:52:08;100272.94;;;12.89
76713;BMP280;65640;43.154;25.658;2024-03-02T13:54:45;100274.50;;;12.90
76713;BMP280;65640;43.154;25.658;2024-03-02T13:57:11;100273.63;;;12.81
76713;BMP280;65640;43.154;25.658;2024-03-02T13:59:37;100270.88;;;12.72
76713;BMP280;65640;43.154;25.658;2024-03-02T14:02:04;100277.63;;;12.78